createdAt,value
2022-08-07T00:00:07.546Z,1.70
2022-08-07T00:02:41.084Z,2.10
2022-08-07T00:05:10.977Z,1.57
2022-08-07T00:07:41.192Z,1.50
2022-08-07T00:10:25.960Z,1.57
2022-08-07T00:13:00.558Z,3.20
2022-08-07T00:15:37.812Z,1.70
2022-08-07T00:18:19.850Z,1.60
2022-08-07T00:20:51.714Z,1.83
2022-08-07T00:23:21.073Z,1.53
2022-08-07T00:25:58.964Z,1.63
2022-08-07T00:28:34.092Z,1.73
2022-08-07T00:31:12.652Z,2.10
2022-08-07T00:33:43.452Z,1.40
2022-08-07T00:36:14.461Z,1.90
2022-08-07T00:38:41.431Z,1.73
2022-08-07T00:41:10.040Z,1.87
2022-08-07T00:44:01.580Z,1.40
2022-08-07T00:46:30.098Z,2.30
2022-08-07T00:49:01.901Z,1.50
2022-08-07T00:51:56.769Z,2.43
2022-08-07T00:54:19.624Z,1.60
2022-08-07T00:56:49.775Z,1.80
2022-08-07T00:59:17.692Z,1.63
2022-08-07T01:01:48.517Z,2.20
2022-08-07T01:04:24.791Z,1.50
2022-08-07T01:06:52.053Z,1.60
2022-08-07T01:10:04.947Z,1.67
2022-08-07T01:12:28.893Z,1.90
2022-08-07T01:15:01.280Z,1.70
2022-08-07T01:17:32.151Z,1.80
2022-08-07T01:20:16.558Z,1.60
2022-08-07T01:22:54.338Z,1.47
2022-08-07T01:25:53.669Z,1.23
2022-08-07T01:28:21.499Z,1.17
2022-08-07T01:30:51.227Z,1.47
2022-08-07T01:33:18.927Z,1.17
2022-08-07T01:35:54.048Z,1.40
2022-08-07T01:38:24.919Z,1.40
2022-08-07T01:40:55.843Z,1.70
2022-08-07T01:43:26.047Z,1.30
2022-08-07T01:45:54.728Z,2.23
2022-08-07T01:48:29.589Z,1.70
2022-08-07T01:51:24.243Z,1.20
2022-08-07T01:54:11.693Z,1.30
2022-08-07T01:57:03.374Z,1.27
2022-08-07T01:59:36.684Z,1.47
2022-08-07T02:03:12.110Z,1.50
2022-08-07T02:05:16.080Z,1.77
2022-08-07T02:08:00.693Z,1.40
2022-08-07T02:10:29.458Z,1.40
2022-08-07T02:13:00.097Z,1.50
2022-08-07T02:15:29.286Z,1.40
2022-08-07T02:17:57.843Z,1.60
2022-08-07T02:20:28.168Z,1.60
2022-08-07T02:23:05.020Z,1.70
2022-08-07T02:26:30.759Z,1.83
2022-08-07T02:28:25.630Z,1.50
2022-08-07T02:30:55.291Z,1.67
2022-08-07T02:33:32.739Z,1.70
2022-08-07T02:36:28.808Z,1.57
2022-08-07T02:39:09.475Z,1.30
2022-08-07T02:41:47.308Z,1.30
2022-08-07T02:44:18.810Z,1.60
2022-08-07T02:46:52.683Z,1.80
2022-08-07T02:49:55.597Z,1.73
2022-08-07T02:52:13.015Z,1.77
2022-08-07T02:54:42.377Z,1.80
2022-08-07T02:57:13.605Z,1.70
2022-08-07T02:59:54.952Z,1.50
2022-08-07T03:02:27.998Z,1.60
2022-08-07T03:04:56.483Z,1.70
2022-08-07T03:07:58.843Z,1.73
2022-08-07T03:10:14.193Z,1.73
2022-08-07T03:12:41.800Z,1.60
2022-08-07T03:15:10.720Z,1.67
2022-08-07T03:17:53.974Z,1.60
2022-08-07T03:20:22.014Z,1.53
2022-08-07T03:22:50.567Z,2.43
2022-08-07T03:25:21.131Z,1.60
2022-08-07T03:27:59.479Z,1.80
2022-08-07T03:30:37.458Z,1.97
2022-08-07T03:33:05.088Z,2.33
2022-08-07T03:35:49.988Z,1.83
2022-08-07T03:38:21.302Z,1.77
2022-08-07T03:40:57.734Z,2.17
2022-08-07T03:43:26.526Z,2.07
2022-08-07T03:45:53.665Z,1.93
2022-08-07T03:48:20.531Z,1.83
2022-08-07T03:50:51.975Z,1.77
2022-08-07T03:53:19.030Z,2.03
2022-08-07T03:56:04.100Z,1.83
2022-08-07T03:59:08.325Z,1.83
2022-08-07T04:01:21.031Z,1.40
2022-08-07T04:03:54.988Z,2.40
2022-08-07T04:06:37.349Z,2.07
2022-08-07T04:09:05.933Z,1.97
2022-08-07T04:12:26.826Z,2.00
2022-08-07T04:14:38.599Z,2.10
2022-08-07T04:17:20.440Z,2.40
2022-08-07T04:19:52.397Z,2.07
2022-08-07T04:22:28.466Z,2.00
2022-08-07T04:25:01.443Z,2.47
2022-08-07T04:27:29.014Z,2.30
2022-08-07T04:30:04.869Z,2.20
2022-08-07T04:32:37.786Z,2.27
2022-08-07T04:35:11.138Z,1.93
2022-08-07T04:38:01.025Z,2.17
2022-08-07T04:40:30.156Z,2.53
2022-08-07T04:43:01.377Z,2.07
2022-08-07T04:46:01.096Z,2.03
2022-08-07T04:48:38.067Z,2.13
2022-08-07T04:51:14.296Z,2.03
2022-08-07T04:54:01.827Z,2.07
2022-08-07T04:58:13.809Z,1.97
2022-08-07T05:00:12.593Z,1.73
2022-08-07T05:04:00.152Z,1.80
2022-08-07T05:06:19.481Z,1.90
2022-08-07T05:09:43.243Z,2.10
2022-08-07T05:12:13.352Z,2.10
2022-08-07T05:14:56.445Z,2.13
2022-08-07T05:17:50.841Z,1.80
2022-08-07T05:20:17.967Z,1.87
2022-08-07T05:22:47.666Z,1.97
2022-08-07T05:25:35.650Z,2.07
2022-08-07T05:28:20.004Z,2.00
2022-08-07T05:30:52.227Z,2.10
2022-08-07T05:33:20.798Z,2.10
2022-08-07T05:35:51.543Z,2.20
2022-08-07T05:39:01.236Z,1.80
2022-08-07T05:41:14.253Z,2.30
2022-08-07T05:44:08.660Z,2.20
2022-08-07T05:46:41.519Z,1.70
2022-08-07T05:49:12.793Z,2.20
2022-08-07T05:51:42.980Z,1.97
2022-08-07T05:54:30.731Z,1.70
2022-08-07T05:56:58.901Z,2.40
2022-08-07T05:59:27.528Z,1.50
2022-08-07T06:01:57.131Z,2.27
2022-08-07T06:04:26.292Z,1.83
2022-08-07T06:07:03.833Z,1.73
2022-08-07T06:09:45.058Z,2.33
2022-08-07T06:12:21.134Z,1.60
2022-08-07T06:15:05.538Z,2.00
2022-08-07T06:17:38.174Z,2.37
2022-08-07T06:20:12.611Z,2.07
2022-08-07T06:23:02.456Z,1.90
2022-08-07T06:25:41.253Z,1.80
2022-08-07T06:28:27.739Z,1.80
2022-08-07T06:30:55.686Z,1.80
2022-08-07T06:33:22.950Z,2.10
2022-08-07T06:36:12.082Z,1.83
2022-08-07T06:38:37.192Z,2.07
2022-08-07T06:41:13.041Z,1.53
2022-08-07T06:43:46.541Z,1.93
2022-08-07T06:46:31.224Z,1.73
2022-08-07T06:48:58.542Z,1.80
2022-08-07T06:51:33.247Z,1.40
2022-08-07T06:55:29.758Z,1.77
2022-08-07T06:56:55.122Z,1.93
2022-08-07T07:00:13.372Z,1.50
2022-08-07T07:02:53.792Z,2.03
2022-08-07T07:05:07.704Z,1.70
2022-08-07T07:07:59.219Z,1.90
2022-08-07T07:10:33.588Z,1.90
2022-08-07T07:13:43.683Z,1.67
2022-08-07T07:16:14.498Z,1.70
2022-08-07T07:18:53.601Z,2.30
2022-08-07T07:21:26.890Z,2.03
2022-08-07T07:24:11.242Z,2.20
2022-08-07T07:26:41.291Z,1.90
2022-08-07T07:29:56.834Z,1.50
2022-08-07T07:32:14.309Z,1.37
2022-08-07T07:34:46.572Z,1.50
2022-08-07T07:37:44.100Z,1.60
2022-08-07T07:40:14.647Z,1.20
2022-08-07T07:42:47.166Z,1.40
2022-08-07T07:45:24.526Z,1.57
2022-08-07T07:48:11.078Z,2.17
2022-08-07T07:50:40.180Z,1.70
2022-08-07T07:53:20.712Z,1.10
2022-08-07T07:56:00.450Z,1.17
2022-08-07T07:58:37.049Z,1.10
2022-08-07T08:02:01.571Z,1.90
2022-08-07T08:04:11.019Z,1.20
2022-08-07T08:06:51.008Z,1.00
2022-08-07T08:09:23.273Z,1.23
2022-08-07T08:12:01.796Z,1.43
2022-08-07T08:14:36.417Z,1.20
2022-08-07T08:17:32.475Z,1.00
2022-08-07T08:20:19.579Z,1.03
2022-08-07T08:23:08.589Z,1.13
2022-08-07T08:26:03.321Z,0.97
2022-08-07T08:28:46.204Z,0.97
2022-08-07T08:32:16.777Z,0.80
2022-08-07T08:34:31.804Z,0.93
2022-08-07T08:36:59.888Z,0.60
2022-08-07T08:39:39.452Z,0.97
2022-08-07T08:42:27.429Z,0.70
2022-08-07T08:45:01.115Z,0.70
2022-08-07T08:47:52.744Z,1.80
2022-08-07T08:50:38.896Z,0.40
2022-08-07T08:53:29.377Z,0.67
2022-08-07T09:00:21.303Z,0.90
2022-08-07T09:14:38.864Z,0.60
2022-08-07T09:18:01.423Z,0.60
2022-08-07T09:20:58.637Z,0.70
2022-08-07T09:24:33.686Z,0.70
2022-08-07T09:26:47.532Z,0.50
2022-08-07T09:30:04.151Z,0.80
2022-08-07T09:32:55.481Z,0.70
2022-08-07T09:36:04.972Z,0.60
2022-08-07T09:38:53.497Z,0.50
2022-08-07T09:41:28.178Z,0.50
2022-08-07T09:44:40.406Z,0.53
2022-08-07T09:47:57.730Z,0.70
2022-08-07T09:50:48.361Z,0.40
2022-08-07T09:53:22.404Z,0.70
2022-08-07T09:56:37.474Z,0.40
2022-08-07T09:59:24.861Z,0.60
2022-08-07T10:02:10.624Z,0.50
2022-08-07T10:05:12.745Z,0.50
2022-08-07T10:07:53.475Z,0.40
2022-08-07T10:10:39.698Z,0.57
2022-08-07T10:13:54.961Z,0.40
2022-08-07T10:16:26.415Z,0.60
2022-08-07T10:19:01.232Z,0.40
2022-08-07T10:22:16.014Z,0.57
2022-08-07T10:24:55.157Z,0.60
2022-08-07T10:27:47.541Z,0.47
2022-08-07T10:30:24.894Z,0.43
2022-08-07T10:33:15.075Z,0.60
2022-08-07T10:36:11.313Z,0.67
2022-08-07T10:38:49.927Z,0.53
2022-08-07T10:41:51.790Z,0.50
2022-08-07T10:44:38.662Z,0.60
2022-08-07T10:47:26.901Z,0.70
2022-08-07T10:50:28.782Z,0.77
2022-08-07T10:53:13.268Z,0.60
2022-08-07T10:56:05.003Z,0.80
2022-08-07T10:59:31.846Z,0.87
2022-08-07T11:02:32.959Z,0.60
2022-08-07T11:05:49.207Z,0.47
2022-08-07T11:08:32.922Z,0.67
2022-08-07T11:11:15.462Z,1.20
2022-08-07T11:14:44.866Z,0.67
2022-08-07T11:17:42.644Z,0.50
2022-08-07T11:20:12.008Z,0.47
2022-08-07T11:22:49.041Z,0.70
2022-08-07T11:25:48.005Z,0.77
2022-08-07T11:28:34.154Z,0.73
2022-08-07T11:31:16.340Z,0.70
2022-08-07T11:34:01.743Z,0.70
2022-08-07T11:36:39.719Z,0.70
2022-08-07T11:39:14.584Z,0.80
2022-08-07T11:42:19.505Z,0.50
2022-08-07T11:45:35.843Z,0.60
2022-08-07T11:49:04.121Z,0.70
2022-08-07T11:51:50.457Z,0.87
2022-08-07T11:54:42.052Z,0.63
2022-08-07T11:58:16.511Z,0.70
2022-08-07T12:01:05.067Z,0.60
2022-08-07T12:03:54.397Z,0.63
2022-08-07T12:06:51.566Z,0.47
2022-08-07T12:10:05.645Z,0.50
2022-08-07T12:13:11.329Z,0.63
2022-08-07T12:16:05.825Z,0.67
2022-08-07T12:19:12.886Z,0.70
2022-08-07T12:22:37.956Z,0.63
2022-08-07T12:26:00.453Z,0.40
2022-08-07T12:28:09.924Z,0.47
2022-08-07T12:30:40.773Z,0.57
2022-08-07T12:33:28.057Z,0.70
2022-08-07T12:35:58.165Z,0.70
2022-08-07T12:38:38.436Z,0.60
2022-08-07T12:41:11.022Z,0.77
2022-08-07T12:44:04.465Z,0.73
2022-08-07T12:46:57.516Z,0.60
2022-08-07T12:49:51.796Z,0.97
2022-08-07T12:53:05.303Z,1.67
2022-08-07T12:56:03.052Z,0.90
2022-08-07T12:58:39.398Z,0.70
2022-08-07T13:01:07.773Z,0.80
2022-08-07T13:03:59.164Z,1.10
2022-08-07T13:06:36.855Z,0.37
2022-08-07T13:10:19.737Z,1.87
2022-08-07T13:12:50.380Z,0.70
2022-08-07T13:15:35.824Z,0.50
2022-08-07T13:18:26.362Z,0.70
2022-08-07T13:21:02.831Z,0.70
2022-08-07T13:24:02.963Z,0.70
2022-08-07T13:26:46.184Z,0.40
2022-08-07T13:29:19.556Z,0.47
2022-08-07T13:31:57.317Z,0.60
2022-08-07T13:34:51.112Z,0.90
2022-08-07T13:37:25.901Z,0.63
2022-08-07T13:40:36.216Z,0.63
2022-08-07T13:43:05.147Z,0.60
2022-08-07T13:46:12.188Z,0.40
2022-08-07T13:48:34.183Z,0.43
2022-08-07T13:51:02.695Z,0.50
2022-08-07T13:54:03.348Z,0.97
2022-08-07T13:56:35.942Z,0.80
2022-08-07T13:59:31.348Z,0.63
2022-08-07T14:02:12.840Z,0.73
2022-08-07T14:04:54.964Z,0.43
2022-08-07T14:07:27.267Z,0.70
2022-08-07T14:10:01.230Z,0.47
2022-08-07T14:12:54.849Z,0.40
2022-08-07T14:15:31.959Z,0.67
2022-08-07T14:18:29.905Z,0.70
2022-08-07T14:22:02.595Z,0.53
2022-08-07T14:24:08.718Z,0.53
2022-08-07T14:26:52.546Z,0.70
2022-08-07T14:30:05.217Z,0.50
2022-08-07T14:32:12.616Z,0.60
2022-08-07T14:34:46.207Z,0.50
2022-08-07T14:37:16.855Z,0.53
2022-08-07T14:40:15.655Z,0.60
2022-08-07T14:42:35.640Z,0.50
2022-08-07T14:45:47.083Z,0.67
2022-08-07T14:48:19.940Z,0.43
2022-08-07T14:50:53.327Z,1.70
2022-08-07T14:54:08.981Z,0.40
2022-08-07T14:56:13.106Z,0.80
2022-08-07T14:58:45.183Z,0.50
2022-08-07T15:01:22.673Z,0.50
2022-08-07T15:03:53.294Z,0.50
2022-08-07T15:06:29.825Z,0.70
2022-08-07T15:09:58.478Z,1.53
2022-08-07T15:12:25.810Z,0.80
2022-08-07T15:15:21.207Z,0.93
2022-08-07T15:17:58.046Z,0.70
2022-08-07T15:20:35.761Z,0.60
2022-08-07T15:26:20.924Z,0.77
2022-08-07T15:28:56.623Z,0.80
2022-08-07T15:32:01.623Z,0.73
2022-08-07T15:34:17.200Z,0.60
2022-08-07T15:37:04.163Z,0.80
2022-08-07T15:45:57.577Z,0.57
2022-08-07T15:48:36.566Z,0.83
2022-08-07T15:54:13.833Z,0.70
2022-08-07T15:56:42.584Z,0.70
2022-08-07T15:59:17.219Z,0.80
2022-08-07T16:02:02.343Z,0.73
2022-08-07T16:04:32.541Z,0.53
2022-08-07T16:08:30.741Z,0.53
2022-08-07T16:10:14.805Z,0.57
2022-08-07T16:13:17.535Z,0.63
2022-08-07T16:16:48.291Z,0.53
2022-08-07T16:19:14.531Z,0.90
2022-08-07T16:22:33.384Z,0.60
2022-08-07T16:25:22.849Z,0.50
2022-08-07T16:30:06.124Z,3.80
2022-08-07T16:31:51.923Z,0.50
2022-08-07T16:34:37.256Z,0.73
2022-08-07T16:38:06.804Z,0.47
2022-08-07T16:40:30.823Z,0.63
2022-08-07T16:43:13.484Z,0.63
2022-08-07T16:46:21.312Z,0.50
2022-08-07T16:50:27.054Z,1.00
2022-08-07T16:52:51.237Z,1.03
2022-08-07T16:55:47.484Z,0.83
2022-08-07T16:59:02.153Z,0.50
2022-08-07T17:01:41.408Z,0.70
2022-08-07T17:04:24.508Z,0.60
2022-08-07T17:07:55.600Z,0.80
2022-08-07T17:10:32.249Z,1.10
2022-08-07T17:13:18.381Z,1.50
2022-08-07T17:15:57.169Z,2.40
2022-08-07T17:18:35.552Z,0.60
2022-08-07T17:21:19.211Z,0.80
2022-08-07T17:24:01.763Z,1.00
2022-08-07T17:27:04.652Z,1.03
2022-08-07T17:30:14.632Z,0.50
2022-08-07T17:34:09.283Z,1.40
2022-08-07T17:36:26.017Z,1.23
2022-08-07T17:38:55.380Z,2.70
2022-08-07T17:42:04.128Z,1.40
2022-08-07T17:44:50.752Z,0.80
2022-08-07T17:47:42.631Z,0.83
2022-08-07T17:50:18.960Z,1.13
2022-08-07T17:54:01.609Z,0.97
2022-08-07T17:56:29.790Z,0.73
2022-08-07T17:58:56.950Z,0.50
2022-08-07T18:01:37.338Z,0.53
2022-08-07T18:04:42.044Z,1.70
2022-08-07T18:07:34.428Z,0.93
2022-08-07T18:12:06.567Z,1.10
2022-08-07T18:13:52.533Z,1.10
2022-08-07T18:16:33.190Z,0.70
2022-08-07T18:21:09.845Z,0.97
2022-08-07T18:22:26.471Z,0.80
2022-08-07T18:25:19.393Z,0.90
2022-08-07T18:27:57.419Z,0.80
2022-08-07T18:30:38.007Z,0.90
2022-08-07T18:33:10.424Z,1.30
2022-08-07T18:36:05.941Z,1.17
2022-08-07T18:40:08.958Z,1.40
2022-08-07T18:42:16.269Z,1.30
2022-08-07T18:45:44.620Z,0.80
2022-08-07T18:48:01.050Z,0.80
2022-08-07T18:50:46.986Z,1.20
2022-08-07T18:53:39.170Z,1.00
2022-08-07T18:57:06.168Z,0.73
2022-08-07T18:59:58.839Z,1.20
2022-08-07T19:02:52.554Z,1.03
2022-08-07T19:06:03.251Z,1.03
2022-08-07T19:08:28.882Z,1.00
2022-08-07T19:11:36.533Z,0.87
2022-08-07T19:14:08.145Z,0.57
2022-08-07T19:17:00.832Z,1.00
2022-08-07T19:19:36.790Z,0.83
2022-08-07T19:22:30.849Z,0.70
2022-08-07T19:25:05.688Z,0.90
2022-08-07T19:28:58.621Z,1.20
2022-08-07T19:31:02.941Z,1.40
2022-08-07T19:33:15.848Z,0.73
2022-08-07T19:35:46.236Z,1.10
2022-08-07T19:38:17.860Z,0.80
2022-08-07T19:40:49.612Z,1.20
2022-08-07T19:43:45.639Z,1.10
2022-08-07T19:46:11.450Z,1.50
2022-08-07T19:48:43.019Z,1.03
2022-08-07T19:51:19.475Z,1.50
2022-08-07T19:54:32.522Z,1.10
2022-08-07T19:57:52.447Z,1.53
2022-08-07T19:59:41.646Z,1.10
2022-08-07T20:02:19.056Z,1.20
2022-08-07T20:04:56.236Z,1.20
2022-08-07T20:07:48.192Z,1.30
2022-08-07T20:10:37.168Z,1.60
2022-08-07T20:13:26.947Z,1.73
2022-08-07T20:16:01.946Z,1.73
2022-08-07T20:18:33.661Z,2.30
2022-08-07T20:21:20.815Z,1.60
2022-08-07T20:24:00.338Z,1.50
2022-08-07T20:26:45.111Z,1.30
2022-08-07T20:29:46.808Z,1.57
2022-08-07T20:32:22.256Z,1.50
2022-08-07T20:34:53.897Z,1.40
2022-08-07T20:37:25.046Z,1.40
2022-08-07T20:40:02.007Z,1.10
2022-08-07T20:42:33.320Z,1.43
2022-08-07T20:45:01.553Z,1.40
2022-08-07T20:47:56.492Z,1.30
2022-08-07T20:50:21.999Z,1.70
2022-08-07T20:52:51.930Z,1.30
2022-08-07T20:55:23.859Z,1.30
2022-08-07T20:58:03.434Z,1.50
2022-08-07T21:00:42.137Z,1.87
2022-08-07T21:03:11.980Z,1.83
2022-08-07T21:05:54.788Z,1.20
2022-08-07T21:08:46.764Z,1.20
2022-08-07T21:11:17.893Z,1.27
2022-08-07T21:14:16.945Z,1.40
2022-08-07T21:16:56.532Z,1.13
2022-08-07T21:19:51.260Z,1.33
2022-08-07T21:22:28.152Z,1.20
2022-08-07T21:25:20.824Z,1.07
2022-08-07T21:27:47.737Z,1.57
2022-08-07T21:30:24.244Z,1.30
2022-08-07T21:32:58.184Z,2.00
2022-08-07T21:36:04.957Z,1.90
2022-08-07T21:38:46.453Z,1.67
2022-08-07T21:41:38.379Z,1.80
2022-08-07T21:44:43.335Z,1.60
2022-08-07T21:47:41.365Z,1.50
2022-08-07T21:50:22.963Z,1.80
2022-08-07T21:52:54.751Z,1.37
2022-08-07T21:55:28.282Z,1.90
2022-08-07T21:58:32.866Z,1.60
2022-08-07T22:01:13.648Z,1.47
2022-08-07T22:03:56.420Z,1.33
2022-08-07T22:06:53.925Z,1.83
2022-08-07T22:09:25.446Z,1.60
2022-08-07T22:12:05.177Z,1.33
2022-08-07T22:15:00.683Z,1.40
2022-08-07T22:17:36.751Z,1.70
2022-08-07T22:20:27.165Z,2.03
2022-08-07T22:23:11.539Z,1.73
2022-08-07T22:26:23.272Z,1.43
2022-08-07T22:29:02.875Z,1.77
2022-08-07T22:31:59.493Z,1.60
2022-08-07T22:34:55.537Z,1.63
2022-08-07T22:38:03.582Z,1.90
2022-08-07T22:40:35.830Z,1.60
2022-08-07T22:43:10.797Z,1.73
2022-08-07T22:47:03.104Z,1.97
2022-08-07T22:49:02.226Z,1.43
2022-08-07T22:52:04.165Z,1.80
2022-08-07T22:55:17.409Z,2.03
2022-08-07T22:58:01.214Z,2.40
2022-08-07T23:00:40.634Z,2.00
2022-08-07T23:03:21.593Z,1.60
2022-08-07T23:06:14.680Z,1.70
2022-08-07T23:10:04.437Z,1.90
2022-08-07T23:12:21.158Z,1.37
2022-08-07T23:16:04.268Z,1.43
2022-08-07T23:18:43.258Z,1.70
2022-08-07T23:21:36.659Z,2.00
2022-08-07T23:24:17.043Z,1.60
2022-08-07T23:26:54.825Z,1.90
2022-08-07T23:29:43.563Z,1.67
2022-08-07T23:34:22.483Z,1.30
2022-08-07T23:36:08.746Z,1.63
2022-08-07T23:39:14.471Z,1.50
2022-08-07T23:42:22.039Z,1.73
2022-08-07T23:46:02.604Z,1.80
2022-08-07T23:49:02.774Z,2.23
2022-08-07T23:53:00.015Z,2.00
2022-08-07T23:54:58.195Z,1.93
2022-08-07T23:57:36.938Z,2.17
